Strona główna
METAR-TAF:

METAR-TAF

Lotnisko :

Ljungbyhed, Szwecja

Szerokość geograficzna: 56-04N, Długość geograficzna: 013-12E, wysokość: 43 m

Aktualna obserwacja pogody

Raport powstał 39 minut temu, godzina 04:20 UTC
Wiatr 13 kt od zachodnio-północny zachód
Temperatura 7°C
Wilgotność 93%
Ciśnienie 1018 hPa
Widzialność 10 km lub więcej

METAR: ESTL 090420Z AUTO 29013KT 9999 BKN009/// 07/06 Q1018

czas: 06:59 (04:59 UTC)

Prognoza

Raport powstał 17 godziny i 50 minut temu, godzina 11:09 UTC
Prognoza ważna od 08 godzina 12 UTC do 08 godzina 15 UTC
Wiatr 10 kt od południowy zachód
Widzialność 10 km lub więcej
Brak chmur poniżej 1500 m i brak chmur cumulonimbus

TAF: ESTL 081109Z 0812/0815 22010KT CAVOK

Obserwacja i prognoza pogody dla ponad 4000 lotnisk (raport METAR i TAF).

Dostępne stacje oznaczono żółtymi i czerwonymi punktami na mapie.

Najedź kursorem aby zobaczyć nazwę stacji.

Kliknij aby zobaczyć obserwacje i prognozy pogody.

Aby zmienić mapę: kliknij na zielony przycisk z czarnym krzyżykiem, aby powiększyć; na zielony przycisk z myślnikiem, aby pomniejszyć; na zielone strzałki, aby przejść do map sąsiednich.


METAR-TAF: